Time;durP1;ratioP1;P1;durP2;ratioP2;P2;SDS_P1;SDS_P2;PMS_P1;PMS_P2;Temp;Humidity;BMP_temperature;BMP_pressure;BME280_temperature;BME280_humidity;BME280_pressure;Samples;Min_cycle;Max_cycle;Signal;HPM_P1;HPM_P2
2023/08/14 00:01:52;;;;;;;4.38;1.60;;;;;;;;;;4941204;28;98703;-81
2023/08/14 00:04:18;;;;;;;5.30;1.60;;;;;;;;;;4944455;28;98851;-83
2023/08/14 00:06:45;;;;;;;10.35;1.65;;;;;;;;;;4933247;28;98275;-82
2023/08/14 00:09:11;;;;;;;7.10;1.48;;;;;;;;;;4947958;28;99069;-82
2023/08/14 00:11:38;;;;;;;5.15;1.60;;;;;;;;;;4940235;28;99259;-82
2023/08/14 00:14:04;;;;;;;4.50;1.42;;;;;;;;;;4944391;28;99274;-82
2023/08/14 00:16:31;;;;;;;4.40;1.80;;;;;;;;;;4944282;28;100519;-82
2023/08/14 00:18:57;;;;;;;3.83;1.77;;;;;;;;;;4932332;28;99478;-82
2023/08/14 00:21:24;;;;;;;5.50;1.52;;;;;;;;;;4944889;28;98471;-82
2023/08/14 00:23:51;;;;;;;4.05;1.55;;;;;;;;;;4943757;28;98685;-82
2023/08/14 00:26:17;;;;;;;3.92;1.52;;;;;;;;;;4953990;28;99488;-82
2023/08/14 00:28:45;;;;;;;4.63;1.75;;;;;;;;;;4943296;28;98896;-82
2023/08/14 00:31:11;;;;;;;3.33;1.65;;;;;;;;;;4933699;28;101105;-81
2023/08/14 00:33:38;;;;;;;2.85;1.55;;;;;;;;;;4934061;28;98675;-83
2023/08/14 00:36:05;;;;;;;4.85;1.73;;;;;;;;;;4939725;28;99002;-82
2023/08/14 00:38:32;;;;;;;4.90;1.70;;;;;;;;;;4931800;28;101912;-82
2023/08/14 00:41:01;;;;;;;4.40;1.42;;;;;;;;;;4944581;28;98867;-80
2023/08/14 00:43:28;;;;;;;4.72;1.60;;;;;;;;;;4943649;28;101584;-80
2023/08/14 00:45:55;;;;;;;4.95;1.52;;;;;;;;;;4945120;28;101782;-80
2023/08/14 00:48:23;;;;;;;3.45;1.52;;;;;;;;;;4951126;28;99241;-80
2023/08/14 00:50:51;;;;;;;6.03;1.70;;;;;;;;;;4945055;28;101563;-81
2023/08/14 00:53:17;;;;;;;3.50;1.70;;;;;;;;;;4940663;28;99255;-80
2023/08/14 00:55:44;;;;;;;6.78;1.98;;;;;;;;;;4939590;28;98804;-81
2023/08/14 00:58:11;;;;;;;4.50;1.70;;;;;;;;;;4939520;28;99930;-81
2023/08/14 01:00:39;;;;;;;3.75;1.50;;;;;;;;;;4945930;28;99281;-82
2023/08/14 01:03:06;;;;;;;6.18;1.60;;;;;;;;;;4937906;28;101700;-81
2023/08/14 01:05:32;;;;;;;5.32;1.80;;;;;;;;;;4943375;28;102009;-82
2023/08/14 01:07:59;;;;;;;2.88;1.75;;;;;;;;;;4959331;28;99078;-82
2023/08/14 01:10:35;;;;;;;2.67;1.50;;;;;;;;;;4962136;28;101099;-82
2023/08/14 01:13:08;;;;;;;4.78;1.65;;;;;;;;;;4939142;28;98503;-81
2023/08/14 01:15:35;;;;;;;;;;;;;;;;;;4946741;28;101744;-81
2023/08/14 01:18:03;;;;;;;3.00;1.50;;;;;;;;;;4938843;28;121079;-81
2023/08/14 01:20:30;;;;;;;5.40;1.88;;;;;;;;;;4948688;28;98245;-81
2023/08/14 01:23:05;;;;;;;3.97;1.77;;;;;;;;;;4946115;28;98523;-82
2023/08/14 01:25:33;;;;;;;3.78;1.70;;;;;;;;;;4948635;28;99409;-81
2023/08/14 01:28:00;;;;;;;4.15;1.65;;;;;;;;;;4935337;28;99449;-80
2023/08/14 01:30:27;;;;;;;3.58;1.70;;;;;;;;;;4947049;28;99569;-81
2023/08/14 01:32:54;;;;;;;4.38;1.90;;;;;;;;;;4942354;28;98623;-81
2023/08/14 01:35:22;;;;;;;5.88;1.60;;;;;;;;;;4944399;28;100329;-82
2023/08/14 01:38:10;;;;;;;2.58;1.40;;;;;;;;;;4942569;28;99454;-81
2023/08/14 01:40:50;;;;;;;2.85;1.63;;;;;;;;;;4946561;28;98506;-81
2023/08/14 01:43:40;;;;;;;4.40;1.50;;;;;;;;;;4938880;28;98874;-81
2023/08/14 01:46:08;;;;;;;2.53;1.35;;;;;;;;;;4936850;28;101309;-81
2023/08/14 01:48:35;;;;;;;2.88;1.23;;;;;;;;;;4925591;28;99085;-81
2023/08/14 01:51:02;;;;;;;2.35;1.40;;;;;;;;;;4947088;28;98711;-81
2023/08/14 01:53:28;;;;;;;3.45;1.33;;;;;;;;;;4936228;28;99857;-80
2023/08/14 01:55:55;;;;;;;5.65;1.42;;;;;;;;;;4937923;28;99536;-80
2023/08/14 01:58:22;;;;;;;4.40;1.30;;;;;;;;;;4944289;28;102069;-80
2023/08/14 02:00:48;;;;;;;3.25;1.40;;;;;;;;;;4944454;28;98770;-81
2023/08/14 02:03:14;;;;;;;2.60;1.27;;;;;;;;;;4937715;28;99213;-81
2023/08/14 02:05:41;;;;;;;3.47;1.50;;;;;;;;;;4932402;28;100312;-82
2023/08/14 02:08:08;;;;;;;3.80;1.60;;;;;;;;;;4936058;28;99016;-81
2023/08/14 02:10:34;;;;;;;3.90;1.60;;;;;;;;;;4948161;28;98856;-81
2023/08/14 02:13:01;;;;;;;3.13;1.40;;;;;;;;;;4944803;28;102185;-82
2023/08/14 02:15:27;;;;;;;3.53;1.50;;;;;;;;;;4942518;28;98495;-82
2023/08/14 02:17:54;;;;;;;3.58;1.65;;;;;;;;;;4927747;28;102987;-82
2023/08/14 02:20:21;;;;;;;3.85;1.40;;;;;;;;;;4947207;28;98560;-82
2023/08/14 02:22:48;;;;;;;4.40;1.50;;;;;;;;;;4932595;28;99471;-80
2023/08/14 02:25:14;;;;;;;2.80;1.45;;;;;;;;;;4942802;28;101967;-80
2023/08/14 02:27:41;;;;;;;3.95;1.60;;;;;;;;;;4943123;28;98963;-81
2023/08/14 02:30:07;;;;;;;3.67;1.50;;;;;;;;;;4944624;28;98756;-81
2023/08/14 02:32:34;;;;;;;3.03;1.60;;;;;;;;;;4939437;28;98565;-80
2023/08/14 02:35:01;;;;;;;4.13;1.45;;;;;;;;;;4944189;28;97843;-81
2023/08/14 02:37:27;;;;;;;2.28;1.40;;;;;;;;;;4941308;28;98478;-81
2023/08/14 02:39:54;;;;;;;4.97;1.50;;;;;;;;;;4950151;28;99325;-80
2023/08/14 02:42:20;;;;;;;3.08;1.40;;;;;;;;;;4946057;28;99321;-82
2023/08/14 02:44:48;;;;;;;5.32;1.85;;;;;;;;;;4945806;28;99464;-82
2023/08/14 02:47:14;;;;;;;3.90;1.58;;;;;;;;;;4948380;28;99058;-82
2023/08/14 02:49:41;;;;;;;5.28;1.77;;;;;;;;;;4960051;28;98343;-82
2023/08/14 02:52:07;;;;;;;5.78;1.63;;;;;;;;;;4956257;28;99178;-82
2023/08/14 02:54:34;;;;;;;5.53;1.98;;;;;;;;;;4956111;28;98488;-80
2023/08/14 02:57:00;;;;;;;5.07;1.50;;;;;;;;;;4943632;28;101699;-81
2023/08/14 02:59:27;;;;;;;3.75;1.55;;;;;;;;;;4959856;28;98519;-81
2023/08/14 03:01:54;;;;;;;3.78;1.50;;;;;;;;;;4944222;28;98924;-81
2023/08/14 03:04:20;;;;;;;3.58;1.65;;;;;;;;;;4947672;28;101963;-81
2023/08/14 03:06:47;;;;;;;4.18;1.40;;;;;;;;;;4942557;28;99473;-81
2023/08/14 03:09:13;;;;;;;4.93;1.52;;;;;;;;;;4946347;28;102641;-81
2023/08/14 03:11:40;;;;;;;3.53;1.70;;;;;;;;;;4943973;28;99437;-80
2023/08/14 03:14:06;;;;;;;3.63;1.45;;;;;;;;;;4944145;28;99347;-80
2023/08/14 03:16:33;;;;;;;3.72;1.50;;;;;;;;;;4940701;28;98982;-80
2023/08/14 03:19:00;;;;;;;3.75;1.40;;;;;;;;;;4934721;28;100133;-81
2023/08/14 03:21:26;;;;;;;2.33;1.33;;;;;;;;;;4962642;28;102153;-81
2023/08/14 03:23:53;;;;;;;6.20;1.58;;;;;;;;;;4951997;28;98743;-80
2023/08/14 03:26:19;;;;;;;2.30;1.23;;;;;;;;;;4945508;28;98627;-80
2023/08/14 03:28:46;;;;;;;2.90;1.30;;;;;;;;;;4939729;28;98899;-80
2023/08/14 03:31:13;;;;;;;2.50;1.50;;;;;;;;;;4920814;28;102460;-80
2023/08/14 03:33:39;;;;;;;3.45;1.23;;;;;;;;;;4937311;28;98675;-80
2023/08/14 03:36:08;;;;;;;2.92;1.40;;;;;;;;;;4935114;28;101114;-80
2023/08/14 03:38:34;;;;;;;2.85;1.33;;;;;;;;;;4935905;28;101601;-80
2023/08/14 03:41:01;;;;;;;2.60;1.40;;;;;;;;;;4949434;28;98841;-80
2023/08/14 03:43:27;;;;;;;4.68;1.52;;;;;;;;;;4947297;28;99555;-81
2023/08/14 03:45:54;;;;;;;3.65;1.30;;;;;;;;;;4949100;28;98512;-81
2023/08/14 03:48:21;;;;;;;2.47;1.38;;;;;;;;;;4947058;28;101686;-81
2023/08/14 03:50:47;;;;;;;3.15;1.52;;;;;;;;;;4948388;28;99658;-81
2023/08/14 03:53:14;;;;;;;3.88;1.50;;;;;;;;;;4934485;28;99542;-80
2023/08/14 03:55:41;;;;;;;2.45;1.35;;;;;;;;;;4941748;28;101397;-81
2023/08/14 03:58:07;;;;;;;3.63;1.40;;;;;;;;;;4944352;28;101778;-80
2023/08/14 04:00:34;;;;;;;2.55;1.30;;;;;;;;;;4946950;28;99140;-81
2023/08/14 04:03:01;;;;;;;3.53;1.38;;;;;;;;;;4932608;28;100253;-80
2023/08/14 04:05:28;;;;;;;2.33;1.30;;;;;;;;;;4929965;28;99203;-81
2023/08/14 04:07:55;;;;;;;3.03;1.50;;;;;;;;;;4940884;28;98918;-81
2023/08/14 04:10:23;;;;;;;2.45;1.50;;;;;;;;;;4948354;28;100114;-81
2023/08/14 04:12:50;;;;;;;3.60;1.58;;;;;;;;;;4935591;28;98505;-81
2023/08/14 04:15:17;;;;;;;;;;;;;;;;;;4947351;28;101070;-81
2023/08/14 04:17:44;;;;;;;4.35;1.85;;;;;;;;;;4938573;28;100170;-81
2023/08/14 04:20:11;;;;;;;3.95;1.73;;;;;;;;;;4948150;28;99507;-81
2023/08/14 04:22:38;;;;;;;5.95;1.80;;;;;;;;;;4932613;28;101047;-81
2023/08/14 04:25:04;;;;;;;4.97;1.52;;;;;;;;;;4939610;28;102860;-80
2023/08/14 04:27:31;;;;;;;2.88;1.60;;;;;;;;;;4947148;28;98871;-81
2023/08/14 04:29:58;;;;;;;4.63;1.60;;;;;;;;;;4917587;28;102009;-81
2023/08/14 04:32:25;;;;;;;5.25;1.80;;;;;;;;;;4929822;28;98884;-81
2023/08/14 04:34:52;;;;;;;;;;;;;;;;;;4933942;28;99045;-81
2023/08/14 04:37:18;;;;;;;5.85;2.00;;;;;;;;;;4940257;28;100899;-80
2023/08/14 04:39:45;;;;;;;4.72;1.67;;;;;;;;;;4941952;28;98693;-81
2023/08/14 04:42:12;;;;;;;4.15;2.00;;;;;;;;;;4936506;28;98922;-81
2023/08/14 04:44:38;;;;;;;6.82;1.80;;;;;;;;;;4943248;28;102707;-81
2023/08/14 04:47:05;;;;;;;5.50;2.20;;;;;;;;;;4937912;28;98625;-81
2023/08/14 04:49:31;;;;;;;3.45;1.90;;;;;;;;;;4946976;28;99136;-81
2023/08/14 04:51:58;;;;;;;4.85;2.05;;;;;;;;;;4945556;28;99125;-81
2023/08/14 04:54:25;;;;;;;4.22;1.90;;;;;;;;;;4936972;28;102214;-81
2023/08/14 04:56:52;;;;;;;6.82;2.45;;;;;;;;;;4937308;28;99006;-80
2023/08/14 04:59:19;;;;;;;7.82;2.40;;;;;;;;;;4944323;28;99067;-80
2023/08/14 05:01:46;;;;;;;7.00;2.15;;;;;;;;;;4941689;28;99044;-80
2023/08/14 05:04:13;;;;;;;5.22;2.30;;;;;;;;;;4938778;28;101166;-80
2023/08/14 05:06:40;;;;;;;4.80;2.08;;;;;;;;;;4955501;28;99179;-80
2023/08/14 05:09:07;;;;;;;8.02;2.35;;;;;;;;;;4954231;28;102135;-80
2023/08/14 05:11:50;;;;;;;6.38;2.60;;;;;;;;;;4960394;28;99005;-80
2023/08/14 05:14:18;;;;;;;8.00;3.45;;;;;;;;;;4965386;28;99182;-80
2023/08/14 05:16:45;;;;;;;5.88;2.65;;;;;;;;;;4958206;28;100849;-80
2023/08/14 05:19:12;;;;;;;7.18;3.15;;;;;;;;;;4962273;28;98621;-80
2023/08/14 05:21:39;;;;;;;8.23;3.80;;;;;;;;;;4947242;28;98584;-80
2023/08/14 05:24:06;;;;;;;6.43;2.63;;;;;;;;;;4953736;28;102138;-80
2023/08/14 05:26:32;;;;;;;4.95;2.65;;;;;;;;;;4954335;28;97883;-80
2023/08/14 05:28:59;;;;;;;7.40;2.40;;;;;;;;;;4938395;28;98583;-80
2023/08/14 05:31:26;;;;;;;5.38;2.35;;;;;;;;;;4949119;28;98427;-80
2023/08/14 05:33:52;;;;;;;8.68;3.13;;;;;;;;;;4966453;28;99213;-81
2023/08/14 05:36:19;;;;;;;9.15;2.47;;;;;;;;;;4946648;28;101180;-81
2023/08/14 05:38:45;;;;;;;7.53;2.53;;;;;;;;;;4937793;28;98539;-81
2023/08/14 05:41:12;;;;;;;8.02;2.55;;;;;;;;;;4947100;28;98837;-81
2023/08/14 05:43:39;;;;;;;5.85;2.35;;;;;;;;;;4948204;28;99788;-81
2023/08/14 05:46:05;;;;;;;5.47;2.30;;;;;;;;;;4949548;28;98648;-81
2023/08/14 05:48:32;;;;;;;6.60;2.25;;;;;;;;;;4947177;28;99304;-81
2023/08/14 05:50:59;;;;;;;5.35;2.22;;;;;;;;;;4952625;28;100089;-80
2023/08/14 05:53:25;;;;;;;8.20;2.47;;;;;;;;;;4946334;28;99024;-80
2023/08/14 05:55:52;;;;;;;10.02;2.80;;;;;;;;;;4936278;28;99287;-80
2023/08/14 05:58:18;;;;;;;7.45;2.63;;;;;;;;;;4939741;28;99227;-80
2023/08/14 06:00:45;;;;;;;5.75;2.60;;;;;;;;;;4945510;28;102193;-80
2023/08/14 06:03:12;;;;;;;5.20;2.28;;;;;;;;;;4930176;28;100305;-81
2023/08/14 06:05:43;;;;;;;11.30;3.10;;;;;;;;;;4944588;28;98840;-81
2023/08/14 06:08:10;;;;;;;7.72;2.60;;;;;;;;;;4938861;28;98946;-80
2023/08/14 06:10:38;;;;;;;6.43;2.58;;;;;;;;;;4934557;28;99259;-80
2023/08/14 06:13:05;;;;;;;5.95;2.63;;;;;;;;;;4941107;28;98980;-79
2023/08/14 06:15:32;;;;;;;7.68;2.90;;;;;;;;;;4946366;28;98667;-80
2023/08/14 06:17:58;;;;;;;7.03;2.55;;;;;;;;;;4936984;28;99032;-78
2023/08/14 06:20:25;;;;;;;5.53;2.55;;;;;;;;;;4946592;28;98776;-80
2023/08/14 06:22:52;;;;;;;8.07;2.88;;;;;;;;;;4933080;28;100826;-79
2023/08/14 06:25:19;;;;;;;7.20;3.03;;;;;;;;;;4939215;28;99084;-80
2023/08/14 06:27:46;;;;;;;6.35;2.70;;;;;;;;;;4932877;28;99425;-82
2023/08/14 06:30:14;;;;;;;7.43;2.70;;;;;;;;;;4943743;28;100357;-83
2023/08/14 06:32:41;;;;;;;8.60;2.88;;;;;;;;;;4929382;28;98564;-83
2023/08/14 06:35:08;;;;;;;9.68;3.03;;;;;;;;;;4949434;28;99011;-81
2023/08/14 06:37:34;;;;;;;7.45;2.90;;;;;;;;;;4938068;28;101267;-82
2023/08/14 06:40:03;;;;;;;8.70;3.15;;;;;;;;;;4946289;28;98775;-82
2023/08/14 06:42:30;;;;;;;12.95;3.80;;;;;;;;;;4927128;28;100395;-81
2023/08/14 06:44:57;;;;;;;9.77;3.70;;;;;;;;;;4927035;28;99017;-81
2023/08/14 06:47:23;;;;;;;13.77;5.88;;;;;;;;;;4925310;28;99362;-81
2023/08/14 06:49:50;;;;;;;13.63;6.57;;;;;;;;;;4922375;28;99492;-81
2023/08/14 06:52:16;;;;;;;12.23;6.45;;;;;;;;;;4939172;28;98867;-81
2023/08/14 06:54:43;;;;;;;8.68;4.03;;;;;;;;;;4950982;28;98751;-80
2023/08/14 06:57:10;;;;;;;12.63;4.57;;;;;;;;;;4940272;28;99163;-80
2023/08/14 06:59:36;;;;;;;10.45;3.95;;;;;;;;;;4941779;28;99044;-81
2023/08/14 07:02:03;;;;;;;11.18;6.10;;;;;;;;;;4946161;28;99260;-81
2023/08/14 07:04:29;;;;;;;12.60;6.45;;;;;;;;;;4955702;28;98404;-81
2023/08/14 07:06:56;;;;;;;12.90;7.05;;;;;;;;;;4944749;28;99185;-81
2023/08/14 07:09:23;;;;;;;14.68;6.80;;;;;;;;;;4934097;28;100686;-81
2023/08/14 07:11:49;;;;;;;8.40;4.25;;;;;;;;;;4942349;28;101088;-81
2023/08/14 07:14:16;;;;;;;8.57;3.45;;;;;;;;;;4936206;28;101248;-81
2023/08/14 07:16:42;;;;;;;13.90;7.15;;;;;;;;;;4928641;28;99500;-82
2023/08/14 07:19:09;;;;;;;9.38;4.30;;;;;;;;;;4928856;28;99380;-81
2023/08/14 07:21:35;;;;;;;11.07;5.95;;;;;;;;;;4940383;28;99176;-82
2023/08/14 07:24:02;;;;;;;9.57;4.53;;;;;;;;;;4940016;28;98751;-81
2023/08/14 07:26:29;;;;;;;13.50;6.18;;;;;;;;;;4945312;28;98910;-81
2023/08/14 07:28:56;;;;;;;13.38;6.03;;;;;;;;;;4944710;28;99132;-81
2023/08/14 07:31:22;;;;;;;12.05;5.53;;;;;;;;;;4940654;28;98661;-82
2023/08/14 07:33:49;;;;;;;11.40;5.70;;;;;;;;;;4934886;28;98966;-81
2023/08/14 07:36:15;;;;;;;9.57;4.40;;;;;;;;;;4938930;28;99925;-82
2023/08/14 07:38:42;;;;;;;9.23;4.55;;;;;;;;;;4943327;28;98856;-82
2023/08/14 07:41:09;;;;;;;14.57;7.05;;;;;;;;;;4939576;28;98946;-82
2023/08/14 07:43:36;;;;;;;18.13;6.82;;;;;;;;;;4944690;28;98563;-82
2023/08/14 07:46:03;;;;;;;13.73;6.88;;;;;;;;;;4937529;28;101288;-81
2023/08/14 07:48:29;;;;;;;15.10;7.15;;;;;;;;;;4939678;28;99169;-82
2023/08/14 07:50:56;;;;;;;14.18;7.25;;;;;;;;;;4938167;28;98722;-81
2023/08/14 07:53:22;;;;;;;13.27;6.70;;;;;;;;;;4947945;28;98833;-81
2023/08/14 07:55:49;;;;;;;12.98;6.30;;;;;;;;;;4938593;28;99602;-82
2023/08/14 07:58:16;;;;;;;12.98;7.00;;;;;;;;;;4931016;28;98609;-82
2023/08/14 08:00:43;;;;;;;10.93;4.90;;;;;;;;;;4942383;28;102174;-82
2023/08/14 08:03:10;;;;;;;12.95;5.95;;;;;;;;;;4933957;28;98673;-81
2023/08/14 08:05:37;;;;;;;13.60;5.78;;;;;;;;;;4947277;28;99063;-82
2023/08/14 08:08:04;;;;;;;13.68;6.10;;;;;;;;;;4937443;28;99334;-82
2023/08/14 08:10:30;;;;;;;14.48;5.95;;;;;;;;;;4937327;28;98961;-81
2023/08/14 08:12:57;;;;;;;11.52;5.20;;;;;;;;;;4927083;28;100262;-82
2023/08/14 08:15:24;;;;;;;10.80;5.15;;;;;;;;;;4941905;28;100218;-81
2023/08/14 08:17:50;;;;;;;11.32;4.78;;;;;;;;;;4941181;28;98316;-81
2023/08/14 08:20:17;;;;;;;9.10;4.40;;;;;;;;;;4945458;28;100887;-80
2023/08/14 08:22:44;;;;;;;13.85;4.65;;;;;;;;;;4930339;28;98686;-81
2023/08/14 08:25:10;;;;;;;9.93;4.43;;;;;;;;;;4941445;28;99685;-83
2023/08/14 08:27:37;;;;;;;11.65;4.75;;;;;;;;;;4940382;28;98500;-81
2023/08/14 08:30:03;;;;;;;9.50;3.90;;;;;;;;;;4945769;28;99351;-80
2023/08/14 08:32:30;;;;;;;13.18;4.43;;;;;;;;;;4928537;28;100712;-80
2023/08/14 08:34:57;;;;;;;12.20;4.30;;;;;;;;;;4946922;28;99218;-81
2023/08/14 08:37:23;;;;;;;9.65;3.63;;;;;;;;;;4930468;28;98921;-81
2023/08/14 08:39:50;;;;;;;9.90;3.60;;;;;;;;;;4921141;28;100063;-81
2023/08/14 08:42:19;;;;;;;10.07;3.90;;;;;;;;;;4925687;28;98610;-82
2023/08/14 08:44:48;;;;;;;10.13;3.63;;;;;;;;;;4947820;28;98843;-82
2023/08/14 08:47:15;;;;;;;12.77;3.90;;;;;;;;;;4938486;28;99692;-82
2023/08/14 08:49:42;;;;;;;10.57;3.63;;;;;;;;;;4939533;28;100392;-82
2023/08/14 08:52:10;;;;;;;9.32;3.60;;;;;;;;;;4930634;28;100627;-82
2023/08/14 08:54:38;;;;;;;13.32;3.35;;;;;;;;;;4938573;28;102885;-82
2023/08/14 08:57:05;;;;;;;11.48;3.38;;;;;;;;;;4941320;28;98990;-82
2023/08/14 08:59:32;;;;;;;11.70;4.55;;;;;;;;;;4948304;28;100088;-82
2023/08/14 09:01:59;;;;;;;8.52;3.60;;;;;;;;;;4946327;28;99125;-80
2023/08/14 09:04:26;;;;;;;8.20;3.40;;;;;;;;;;4947530;28;98730;-82
2023/08/14 09:06:53;;;;;;;13.68;2.90;;;;;;;;;;4950578;28;98756;-81
2023/08/14 09:09:20;;;;;;;10.32;3.20;;;;;;;;;;4939867;28;98613;-80
2023/08/14 09:11:46;;;;;;;10.82;3.72;;;;;;;;;;4944932;28;98950;-84
2023/08/14 09:14:13;;;;;;;11.48;3.10;;;;;;;;;;4946763;28;99948;-84
2023/08/14 09:16:41;;;;;;;11.45;3.28;;;;;;;;;;4941802;28;100472;-84
2023/08/14 09:19:08;;;;;;;9.57;2.97;;;;;;;;;;4943770;28;98813;-84
2023/08/14 09:21:34;;;;;;;9.15;3.15;;;;;;;;;;4940550;28;98508;-84
2023/08/14 09:24:01;;;;;;;8.85;3.20;;;;;;;;;;4945128;28;98881;-84
2023/08/14 09:26:27;;;;;;;13.27;3.72;;;;;;;;;;4951030;28;98798;-84
2023/08/14 09:28:55;;;;;;;12.00;4.53;;;;;;;;;;4946845;28;98935;-84
2023/08/14 09:31:21;;;;;;;12.60;4.15;;;;;;;;;;4939428;28;99356;-84
2023/08/14 09:33:48;;;;;;;9.23;3.83;;;;;;;;;;4941981;28;101892;-82
2023/08/14 09:36:15;;;;;;;11.60;4.50;;;;;;;;;;4943950;28;99269;-84
2023/08/14 09:38:42;;;;;;;10.23;3.42;;;;;;;;;;4928195;28;99679;-84
2023/08/14 09:41:09;;;;;;;13.73;3.70;;;;;;;;;;4944793;28;100375;-85
2023/08/14 09:43:35;;;;;;;12.15;4.18;;;;;;;;;;4938959;28;99381;-84
2023/08/14 09:46:02;;;;;;;13.70;4.57;;;;;;;;;;4951929;28;99125;-85
2023/08/14 09:48:42;;;;;;;13.40;4.35;;;;;;;;;;4943194;28;98568;-85
2023/08/14 09:51:09;;;;;;;13.90;4.90;;;;;;;;;;4945093;28;98915;-82
2023/08/14 09:53:48;;;;;;;10.85;4.30;;;;;;;;;;4942355;28;99122;-84
2023/08/14 09:56:18;;;;;;;11.02;4.75;;;;;;;;;;4940894;28;98424;-85
2023/08/14 09:58:47;;;;;;;12.55;3.97;;;;;;;;;;4946652;28;98546;-85
2023/08/14 10:01:15;;;;;;;12.93;4.45;;;;;;;;;;4937426;28;99573;-85
2023/08/14 10:03:42;;;;;;;12.43;4.60;;;;;;;;;;4941252;28;99921;-85
2023/08/14 10:06:12;;;;;;;11.25;5.45;;;;;;;;;;4946545;28;99867;-86
2023/08/14 10:08:40;;;;;;;10.68;5.43;;;;;;;;;;4934054;28;99041;-86
2023/08/14 10:11:07;;;;;;;11.48;4.35;;;;;;;;;;4935687;28;98877;-85
2023/08/14 10:13:46;;;;;;;11.25;4.68;;;;;;;;;;4940954;28;99715;-85
2023/08/14 10:16:16;;;;;;;13.13;5.68;;;;;;;;;;4940661;28;99059;-85
2023/08/14 10:18:44;;;;;;;11.98;4.88;;;;;;;;;;4940135;28;98794;-85
2023/08/14 10:21:12;;;;;;;11.02;4.25;;;;;;;;;;4930436;28;101341;-81
2023/08/14 10:23:39;;;;;;;10.38;3.05;;;;;;;;;;4936348;28;98889;-85
2023/08/14 10:26:11;;;;;;;12.73;4.60;;;;;;;;;;4945784;28;99100;-84
2023/08/14 10:28:38;;;;;;;12.02;4.47;;;;;;;;;;4947072;28;100053;-85
2023/08/14 10:31:05;;;;;;;9.20;3.78;;;;;;;;;;4936363;28;98937;-85
2023/08/14 10:33:32;;;;;;;10.18;3.90;;;;;;;;;;4940125;28;98739;-86
2023/08/14 10:36:00;;;;;;;9.05;3.70;;;;;;;;;;4946351;28;98834;-85
2023/08/14 10:38:46;;;;;;;8.82;2.92;;;;;;;;;;4918513;28;99771;-86
2023/08/14 10:41:14;;;;;;;9.73;2.53;;;;;;;;;;4933056;28;99273;-86
2023/08/14 10:43:41;;;;;;;8.18;2.50;;;;;;;;;;4939277;28;99024;-85
2023/08/14 10:46:13;;;;;;;9.25;3.00;;;;;;;;;;4946106;28;99937;-84
2023/08/14 10:48:41;;;;;;;11.10;3.25;;;;;;;;;;4946284;28;99666;-82
2023/08/14 10:51:08;;;;;;;7.38;2.60;;;;;;;;;;4946717;28;98910;-85
2023/08/14 10:53:36;;;;;;;8.32;2.35;;;;;;;;;;4944721;28;99377;-84
2023/08/14 10:56:04;;;;;;;6.65;2.15;;;;;;;;;;4943417;28;100139;-83
2023/08/14 10:58:31;;;;;;;9.88;2.53;;;;;;;;;;4944312;28;98717;-84
2023/08/14 11:00:58;;;;;;;9.88;2.00;;;;;;;;;;4948879;28;99107;-85
2023/08/14 11:03:25;;;;;;;8.65;2.17;;;;;;;;;;4949518;28;98555;-84
2023/08/14 11:05:52;;;;;;;6.43;1.70;;;;;;;;;;4945964;28;98887;-83
2023/08/14 11:08:20;;;;;;;9.20;2.33;;;;;;;;;;4952128;28;99735;-82
2023/08/14 11:10:48;;;;;;;7.93;2.33;;;;;;;;;;4955300;28;97756;-85
2023/08/14 11:13:15;;;;;;;8.10;1.73;;;;;;;;;;4955804;28;100457;-82
2023/08/14 11:15:42;;;;;;;5.70;1.70;;;;;;;;;;4958965;28;99357;-83
2023/08/14 11:18:09;;;;;;;6.95;1.80;;;;;;;;;;4947437;28;99494;-86
2023/08/14 11:20:37;;;;;;;5.68;1.67;;;;;;;;;;4959522;28;99125;-82
2023/08/14 11:23:04;;;;;;;9.43;1.90;;;;;;;;;;4929060;28;98895;-87
2023/08/14 11:25:31;;;;;;;7.22;2.00;;;;;;;;;;4923734;28;98993;-83
2023/08/14 11:27:58;;;;;;;5.32;1.73;;;;;;;;;;4946192;28;99175;-81
2023/08/14 11:30:25;;;;;;;6.35;1.60;;;;;;;;;;4942246;28;99009;-81
2023/08/14 11:32:53;;;;;;;6.57;1.42;;;;;;;;;;4944692;28;98802;-80
2023/08/14 11:35:20;;;;;;;6.45;1.70;;;;;;;;;;4961312;28;98516;-81
2023/08/14 11:37:51;;;;;;;5.35;1.70;;;;;;;;;;4947507;28;98993;-80
2023/08/14 11:40:18;;;;;;;7.43;1.85;;;;;;;;;;4946647;28;99327;-82
2023/08/14 11:42:48;;;;;;;4.95;1.67;;;;;;;;;;4937252;28;99578;-80
2023/08/14 11:45:14;;;;;;;7.25;1.95;;;;;;;;;;4937162;28;100614;-84
2023/08/14 11:47:47;;;;;;;6.22;2.00;;;;;;;;;;4943903;28;99374;-85
2023/08/14 11:50:15;;;;;;;7.05;2.00;;;;;;;;;;4933394;28;98651;-84
2023/08/14 11:52:42;;;;;;;7.32;1.90;;;;;;;;;;4941908;28;99149;-84
2023/08/14 11:55:09;;;;;;;;;;;;;;;;;;4939263;28;100475;-83
2023/08/14 11:57:36;;;;;;;7.68;1.80;;;;;;;;;;4943917;28;100276;-85
2023/08/14 12:00:10;;;;;;;5.97;1.67;;;;;;;;;;4941957;28;99389;-85
2023/08/14 12:02:40;;;;;;;6.65;1.80;;;;;;;;;;4930179;28;99150;-85
2023/08/14 12:05:07;;;;;;;6.35;1.80;;;;;;;;;;4932921;28;99511;-83
2023/08/14 12:07:34;;;;;;;;;;;;;;;;;;4942808;28;100326;-84
2023/08/14 12:10:04;;;;;;;6.95;1.90;;;;;;;;;;4946532;28;99285;-83
2023/08/14 12:12:31;;;;;;;8.05;2.10;;;;;;;;;;4935894;28;98901;-84
2023/08/14 12:14:58;;;;;;;8.18;2.05;;;;;;;;;;4932155;28;101888;-84
2023/08/14 12:17:25;;;;;;;6.28;1.92;;;;;;;;;;4948333;28;98901;-84
2023/08/14 12:19:54;;;;;;;8.65;1.73;;;;;;;;;;4937285;28;99241;-84
2023/08/14 12:22:21;;;;;;;6.53;2.05;;;;;;;;;;4938806;28;102040;-84
2023/08/14 12:24:48;;;;;;;7.93;1.75;;;;;;;;;;4941791;28;99348;-84
2023/08/14 12:27:17;;;;;;;6.25;2.00;;;;;;;;;;4948547;28;99594;-84
2023/08/14 12:29:44;;;;;;;6.97;1.83;;;;;;;;;;4940253;28;99409;-83
2023/08/14 12:32:11;;;;;;;5.95;1.77;;;;;;;;;;4937031;28;99408;-84
2023/08/14 12:34:38;;;;;;;7.25;1.65;;;;;;;;;;4943266;28;101285;-85
2023/08/14 12:37:05;;;;;;;8.82;2.00;;;;;;;;;;4943725;28;98785;-84
2023/08/14 12:39:32;;;;;;;6.03;1.90;;;;;;;;;;4940432;28;99186;-84
2023/08/14 12:41:59;;;;;;;8.98;2.03;;;;;;;;;;4932378;28;99316;-84
2023/08/14 12:44:26;;;;;;;7.45;1.92;;;;;;;;;;4935673;28;99935;-87
2023/08/14 12:46:53;;;;;;;6.28;1.90;;;;;;;;;;4921593;28;99275;-86
2023/08/14 12:49:22;;;;;;;7.38;2.00;;;;;;;;;;4938039;28;98340;-86
2023/08/14 12:51:49;;;;;;;6.80;2.10;;;;;;;;;;4943236;28;98534;-84
2023/08/14 12:54:15;;;;;;;8.32;2.28;;;;;;;;;;4937376;28;99284;-86
2023/08/14 12:56:44;;;;;;;7.45;2.17;;;;;;;;;;4929742;28;99714;-86
2023/08/14 12:59:10;;;;;;;6.43;1.80;;;;;;;;;;4938654;28;99644;-86
2023/08/14 13:01:37;;;;;;;8.15;2.10;;;;;;;;;;4942007;28;99132;-86
2023/08/14 13:04:04;;;;;;;7.15;1.83;;;;;;;;;;4928178;28;98498;-86
2023/08/14 13:06:33;;;;;;;5.28;1.80;;;;;;;;;;4933648;28;99391;-83
2023/08/14 13:09:00;;;;;;;7.50;1.85;;;;;;;;;;4939009;28;99048;-83
2023/08/14 13:11:26;;;;;;;6.00;1.87;;;;;;;;;;4937213;28;99850;-83
2023/08/14 13:13:53;;;;;;;6.70;1.92;;;;;;;;;;4927253;28;99701;-83
2023/08/14 13:16:19;;;;;;;9.02;2.10;;;;;;;;;;4942882;28;98493;-84
2023/08/14 13:18:46;;;;;;;6.93;1.92;;;;;;;;;;4945800;28;98514;-84
2023/08/14 13:21:13;;;;;;;6.50;1.98;;;;;;;;;;4932343;28;99442;-84
2023/08/14 13:23:39;;;;;;;7.78;2.17;;;;;;;;;;4938245;28;98532;-85
2023/08/14 13:26:06;;;;;;;6.28;1.90;;;;;;;;;;4947147;28;99381;-84
2023/08/14 13:28:35;;;;;;;7.30;1.90;;;;;;;;;;4941985;28;98511;-83
2023/08/14 13:31:05;;;;;;;6.28;2.00;;;;;;;;;;4941536;28;98777;-84
2023/08/14 13:33:32;;;;;;;8.55;2.00;;;;;;;;;;4949266;28;99451;-84
2023/08/14 13:35:58;;;;;;;7.63;2.00;;;;;;;;;;4953335;28;98951;-84
2023/08/14 13:38:25;;;;;;;5.20;1.75;;;;;;;;;;4958410;28;97726;-84
2023/08/14 13:40:52;;;;;;;7.30;1.73;;;;;;;;;;4952419;28;98406;-85
2023/08/14 13:43:19;;;;;;;5.93;2.03;;;;;;;;;;4959645;28;98419;-83
2023/08/14 13:45:45;;;;;;;6.90;1.98;;;;;;;;;;4956521;28;99136;-84
2023/08/14 13:48:12;;;;;;;6.28;1.98;;;;;;;;;;4954220;28;100245;-83
2023/08/14 13:50:39;;;;;;;6.32;1.77;;;;;;;;;;4946724;28;98809;-85
2023/08/14 13:53:08;;;;;;;5.68;1.90;;;;;;;;;;4946002;28;98510;-85
2023/08/14 13:55:35;;;;;;;8.90;2.00;;;;;;;;;;4937875;28;98551;-85
2023/08/14 13:58:01;;;;;;;7.13;1.90;;;;;;;;;;4929788;28;98883;-84
2023/08/14 14:00:29;;;;;;;6.55;1.95;;;;;;;;;;4937129;28;99672;-84
2023/08/14 14:02:57;;;;;;;6.70;1.98;;;;;;;;;;4938851;28;97809;-84
2023/08/14 14:05:24;;;;;;;6.88;2.17;;;;;;;;;;4942865;28;99663;-83
2023/08/14 14:07:52;;;;;;;5.55;1.70;;;;;;;;;;4937987;28;99485;-82
2023/08/14 14:10:22;;;;;;;7.05;1.85;;;;;;;;;;4931105;28;99367;-83
2023/08/14 14:12:48;;;;;;;7.10;2.00;;;;;;;;;;4923524;28;100410;-82
2023/08/14 14:15:27;;;;;;;6.78;2.13;;;;;;;;;;4931225;28;99008;-81
2023/08/14 14:17:53;;;;;;;6.45;2.00;;;;;;;;;;4937071;28;99378;-82
2023/08/14 14:20:20;;;;;;;6.63;2.10;;;;;;;;;;4932326;28;100566;-81
2023/08/14 14:22:47;;;;;;;5.93;1.95;;;;;;;;;;4935469;28;98855;-83
2023/08/14 14:25:13;;;;;;;6.88;2.00;;;;;;;;;;4931608;28;98908;-82
2023/08/14 14:27:40;;;;;;;7.10;2.15;;;;;;;;;;4934802;28;98736;-83
2023/08/14 14:30:07;;;;;;;6.90;2.30;;;;;;;;;;4933883;28;99023;-81
2023/08/14 14:32:33;;;;;;;6.03;2.10;;;;;;;;;;4938198;28;99064;-82
2023/08/14 14:35:00;;;;;;;6.85;1.90;;;;;;;;;;4923572;28;99644;-82
2023/08/14 14:37:26;;;;;;;6.07;2.10;;;;;;;;;;4932192;28;100590;-82
2023/08/14 14:39:53;;;;;;;5.45;1.85;;;;;;;;;;4933651;28;100469;-80